createdAt,value
2024-01-09T00:00:35.355Z,7.32
2024-01-09T00:03:24.110Z,7.40
2024-01-09T00:05:51.548Z,7.18
2024-01-09T00:08:18.943Z,7.18
2024-01-09T00:10:46.350Z,7.32
2024-01-09T00:13:13.616Z,7.80
2024-01-09T00:15:41.038Z,6.97
2024-01-09T00:18:08.337Z,6.57
2024-01-09T00:20:37.073Z,7.55
2024-01-09T00:23:04.553Z,7.53
2024-01-09T00:25:32.100Z,7.20
2024-01-09T00:27:59.792Z,7.10
2024-01-09T00:30:27.174Z,7.80
2024-01-09T00:32:54.629Z,7.22
2024-01-09T00:35:22.196Z,6.97
2024-01-09T00:37:50.780Z,6.85
2024-01-09T00:40:18.449Z,7.32
2024-01-09T00:42:45.578Z,6.63
2024-01-09T00:45:12.936Z,7.07
2024-01-09T00:47:40.247Z,6.90
2024-01-09T00:50:08.230Z,7.85
2024-01-09T00:52:35.540Z,7.35
2024-01-09T00:55:04.938Z,7.70
2024-01-09T00:57:31.964Z,6.57
2024-01-09T00:59:59.383Z,6.88
2024-01-09T01:02:26.666Z,7.22
2024-01-09T01:04:54.193Z,7.57
2024-01-09T01:07:21.337Z,7.75
2024-01-09T01:09:48.669Z,7.40
2024-01-09T01:12:17.155Z,8.18
2024-01-09T01:14:44.703Z,7.55
2024-01-09T01:17:11.999Z,7.03
2024-01-09T01:19:39.472Z,6.80
2024-01-09T01:22:06.695Z,7.30
2024-01-09T01:24:34.096Z,7.75
2024-01-09T01:27:01.248Z,7.65
2024-01-09T01:29:30.296Z,7.32
2024-01-09T01:31:57.491Z,7.20
2024-01-09T01:34:25.119Z,7.40
2024-01-09T01:36:52.292Z,7.43
2024-01-09T01:39:19.670Z,7.47
2024-01-09T01:41:46.960Z,7.55
2024-01-09T01:44:18.128Z,8.30
2024-01-09T01:46:48.270Z,6.93
2024-01-09T01:49:18.359Z,7.45
2024-01-09T01:51:47.853Z,7.47
2024-01-09T01:54:15.739Z,8.15
2024-01-09T01:56:43.296Z,7.07
2024-01-09T01:59:12.071Z,7.20
2024-01-09T02:01:39.875Z,6.57
2024-01-09T02:04:10.318Z,6.50
2024-01-09T02:06:38.550Z,7.30
2024-01-09T02:09:06.029Z,7.25
2024-01-09T02:11:34.152Z,6.80
2024-01-09T02:14:01.585Z,7.22
2024-01-09T02:16:29.190Z,6.78
2024-01-09T02:18:56.687Z,6.85
2024-01-09T02:21:25.184Z,7.55
2024-01-09T02:23:52.819Z,7.20
2024-01-09T02:26:39.751Z,7.85
2024-01-09T02:29:14.177Z,7.07
2024-01-09T02:31:43.152Z,7.07
2024-01-09T02:34:16.616Z,7.40
2024-01-09T02:36:43.787Z,7.43
2024-01-09T02:39:11.093Z,6.90
2024-01-09T02:41:39.419Z,7.28
2024-01-09T02:44:07.025Z,7.65
2024-01-09T02:46:34.147Z,7.25
2024-01-09T02:49:03.059Z,7.70
2024-01-09T02:51:30.202Z,7.78
2024-01-09T02:53:57.638Z,8.63
2024-01-09T02:56:24.780Z,9.23
2024-01-09T02:58:52.272Z,9.60
2024-01-09T03:01:19.380Z,10.18
2024-01-09T03:03:46.837Z,9.65
2024-01-09T03:06:15.608Z,8.70
2024-01-09T03:11:10.157Z,8.77
2024-01-09T03:13:39.082Z,10.32
2024-01-09T03:16:11.016Z,9.13
2024-01-09T03:18:38.609Z,8.90
2024-01-09T03:21:06.041Z,9.65
2024-01-09T03:23:35.160Z,9.60
2024-01-09T03:26:02.418Z,9.88
2024-01-09T03:28:29.826Z,9.13
2024-01-09T03:30:56.912Z,9.75
2024-01-09T03:33:24.685Z,9.48
2024-01-09T03:35:52.020Z,10.32
2024-01-09T03:38:19.400Z,10.23
2024-01-09T03:40:48.238Z,8.55
2024-01-09T03:43:15.642Z,10.30
2024-01-09T03:45:42.693Z,9.63
2024-01-09T03:48:10.148Z,9.65
2024-01-09T03:50:37.304Z,9.43
2024-01-09T03:53:04.921Z,10.15
2024-01-09T03:55:32.025Z,8.48
2024-01-09T03:58:00.665Z,9.85
2024-01-09T04:00:27.909Z,9.07
2024-01-09T04:02:55.466Z,9.23
2024-01-09T04:05:22.747Z,9.05
2024-01-09T04:07:50.170Z,10.55
2024-01-09T04:10:17.601Z,9.38
2024-01-09T04:12:45.034Z,10.02
2024-01-09T04:15:14.799Z,11.65
2024-01-09T04:17:42.358Z,10.85
2024-01-09T04:20:13.147Z,10.10
2024-01-09T04:22:40.633Z,10.75
2024-01-09T04:25:09.268Z,12.32
2024-01-09T04:27:36.612Z,9.07
2024-01-09T04:30:05.025Z,9.90
2024-01-09T04:32:33.818Z,11.43
2024-01-09T04:35:01.059Z,10.38
2024-01-09T04:37:28.539Z,11.70
2024-01-09T04:39:55.779Z,11.13
2024-01-09T04:42:23.223Z,11.85
2024-01-09T04:44:50.290Z,10.40
2024-01-09T04:47:17.775Z,10.82
2024-01-09T04:49:46.261Z,9.63
2024-01-09T04:52:14.574Z,10.65
2024-01-09T04:54:41.639Z,11.52
2024-01-09T04:57:09.121Z,10.50
2024-01-09T04:59:36.348Z,14.75
2024-01-09T05:02:04.400Z,12.45
2024-01-09T05:04:31.987Z,11.93
2024-01-09T05:07:00.891Z,11.00
2024-01-09T05:09:28.695Z,10.90
2024-01-09T05:11:56.360Z,11.10
2024-01-09T05:14:23.815Z,10.85
2024-01-09T05:16:51.207Z,11.50
2024-01-09T05:19:18.490Z,10.75
2024-01-09T05:21:46.253Z,11.13
2024-01-09T05:24:14.968Z,10.93
2024-01-09T05:26:42.547Z,11.32
2024-01-09T05:29:10.123Z,10.88
2024-01-09T05:31:42.821Z,11.00
2024-01-09T05:34:09.928Z,10.75
2024-01-09T05:36:37.417Z,11.18
2024-01-09T05:39:04.637Z,10.48
2024-01-09T05:41:33.396Z,10.88
2024-01-09T05:44:00.676Z,10.50
2024-01-09T05:46:28.398Z,10.07
2024-01-09T05:48:55.626Z,10.48
2024-01-09T05:51:23.013Z,10.98
2024-01-09T05:53:51.679Z,11.55
2024-01-09T05:56:19.273Z,9.80
2024-01-09T05:58:47.813Z,10.35
2024-01-09T06:01:15.327Z,11.15
2024-01-09T06:03:42.830Z,10.25
2024-01-09T06:06:10.440Z,10.80
2024-01-09T06:08:37.630Z,9.88
2024-01-09T06:11:05.606Z,10.10
2024-01-09T06:13:32.837Z,10.25
2024-01-09T06:16:01.694Z,10.80
2024-01-09T06:18:28.955Z,10.13
2024-01-09T06:20:56.569Z,10.05
2024-01-09T06:23:23.985Z,10.23
2024-01-09T06:25:51.666Z,10.48
2024-01-09T06:28:18.765Z,11.20
2024-01-09T06:30:46.186Z,10.32
2024-01-09T06:33:14.810Z,12.35
2024-01-09T06:35:42.366Z,12.27
2024-01-09T06:38:09.403Z,12.88
2024-01-09T06:40:36.723Z,12.75
2024-01-09T06:43:03.923Z,12.75
2024-01-09T06:45:31.535Z,13.43
2024-01-09T06:47:58.795Z,13.57
2024-01-09T06:50:33.986Z,11.52
2024-01-09T06:53:05.781Z,12.23
2024-01-09T06:55:33.830Z,11.83
2024-01-09T06:58:03.142Z,10.43
2024-01-09T07:00:30.596Z,11.02
2024-01-09T07:02:58.419Z,12.30
2024-01-09T07:05:27.494Z,13.37
2024-01-09T07:07:54.618Z,12.35
2024-01-09T07:10:22.041Z,11.10
2024-01-09T07:12:49.184Z,9.25
2024-01-09T07:15:17.702Z,9.30
2024-01-09T07:17:46.095Z,9.95
2024-01-09T07:20:13.829Z,11.18
2024-01-09T07:22:44.886Z,10.30
2024-01-09T07:25:15.483Z,10.63
2024-01-09T07:27:42.742Z,11.98
2024-01-09T07:30:11.257Z,10.45
2024-01-09T07:32:39.164Z,10.67
2024-01-09T07:35:07.942Z,10.98
2024-01-09T07:37:35.206Z,13.40
2024-01-09T07:40:07.536Z,10.70
2024-01-09T07:42:42.970Z,11.55
2024-01-09T07:47:40.735Z,10.23
2024-01-09T07:50:09.543Z,9.63
2024-01-09T07:52:36.702Z,10.98
2024-01-09T07:55:06.062Z,10.52
2024-01-09T07:57:34.277Z,11.32
2024-01-09T08:00:01.726Z,12.80
2024-01-09T08:02:29.529Z,11.02
2024-01-09T08:04:58.920Z,12.32
2024-01-09T08:07:26.040Z,12.32
2024-01-09T08:09:53.431Z,13.15
2024-01-09T08:12:21.927Z,13.40
2024-01-09T08:14:50.533Z,14.13
2024-01-09T08:17:18.057Z,13.65
2024-01-09T08:19:46.693Z,14.27
2024-01-09T08:22:14.510Z,14.85
2024-01-09T08:24:42.121Z,14.75
2024-01-09T08:27:09.254Z,13.65
2024-01-09T08:29:38.133Z,15.18
2024-01-09T08:32:07.051Z,13.60
2024-01-09T08:37:01.458Z,14.15
2024-01-09T08:39:28.893Z,13.85
2024-01-09T08:41:56.059Z,11.55
2024-01-09T08:44:26.436Z,12.80
2024-01-09T08:46:54.857Z,13.35
2024-01-09T08:49:23.503Z,12.60
2024-01-09T08:51:50.651Z,13.13
2024-01-09T08:54:18.471Z,12.73
2024-01-09T08:56:45.676Z,11.68
2024-01-09T08:59:13.172Z,12.80
2024-01-09T09:01:40.294Z,13.40
2024-01-09T09:04:09.368Z,12.68
2024-01-09T09:06:36.701Z,12.57
2024-01-09T09:09:07.002Z,14.48
2024-01-09T09:11:34.337Z,14.18
2024-01-09T09:14:02.306Z,15.10
2024-01-09T09:16:30.380Z,14.45
2024-01-09T09:18:58.081Z,15.43
2024-01-09T09:21:26.951Z,16.63
2024-01-09T09:23:54.595Z,13.30
2024-01-09T09:26:21.798Z,14.18
2024-01-09T09:29:00.251Z,13.18
2024-01-09T09:31:39.883Z,13.30
2024-01-09T09:34:08.136Z,12.88
2024-01-09T09:36:38.668Z,12.23
2024-01-09T09:39:06.215Z,13.88
2024-01-09T09:41:34.178Z,13.48
2024-01-09T09:44:04.643Z,12.53
2024-01-09T09:46:34.976Z,11.95
2024-01-09T09:49:04.602Z,10.75
2024-01-09T09:51:32.112Z,11.38
2024-01-09T09:54:03.375Z,10.57
2024-01-09T09:56:32.481Z,11.18
2024-01-09T09:58:59.910Z,11.88
2024-01-09T10:01:29.491Z,11.10
2024-01-09T10:04:00.912Z,11.40
2024-01-09T10:06:29.853Z,11.68
2024-01-09T10:08:57.964Z,13.23
2024-01-09T10:11:26.564Z,13.02
2024-01-09T10:13:56.350Z,12.85
2024-01-09T10:16:23.510Z,12.80
2024-01-09T10:18:55.552Z,11.05
2024-01-09T10:21:23.847Z,14.60
2024-01-09T10:23:55.165Z,11.67
2024-01-09T10:26:26.439Z,12.68
2024-01-09T10:28:59.748Z,11.55
2024-01-09T10:31:26.905Z,11.75
2024-01-09T10:33:55.419Z,11.75
2024-01-09T10:36:23.695Z,10.57
2024-01-09T10:38:51.213Z,9.48
2024-01-09T10:41:19.903Z,8.82
2024-01-09T10:43:48.958Z,8.65
2024-01-09T10:46:17.332Z,8.73
2024-01-09T10:48:46.929Z,9.30
2024-01-09T10:51:16.486Z,10.57
2024-01-09T10:53:46.326Z,11.20
2024-01-09T10:56:18.785Z,9.70
2024-01-09T10:58:47.936Z,10.18
2024-01-09T11:01:15.252Z,10.80
2024-01-09T11:03:45.039Z,11.10
2024-01-09T11:06:15.890Z,10.75
2024-01-09T11:08:46.472Z,10.45
2024-01-09T11:11:16.434Z,11.27
2024-01-09T11:13:47.867Z,11.88
2024-01-09T11:16:19.009Z,11.45
2024-01-09T11:18:48.838Z,11.30
2024-01-09T11:21:18.606Z,12.57
2024-01-09T11:23:56.067Z,11.77
2024-01-09T11:26:28.340Z,11.85
2024-01-09T11:28:57.409Z,11.55
2024-01-09T11:31:25.142Z,11.25
2024-01-09T11:33:56.548Z,10.23
2024-01-09T11:36:28.728Z,11.20
2024-01-09T11:38:57.086Z,10.15
2024-01-09T11:41:31.172Z,12.07
2024-01-09T11:44:04.009Z,11.68
2024-01-09T11:46:33.731Z,11.82
2024-01-09T11:49:03.690Z,11.43
2024-01-09T11:51:32.327Z,11.02
2024-01-09T11:54:00.318Z,11.35
2024-01-09T11:56:28.733Z,11.10
2024-01-09T11:58:56.353Z,9.70
2024-01-09T12:01:23.827Z,10.70
2024-01-09T12:03:53.101Z,10.10
2024-01-09T12:06:22.614Z,10.55
2024-01-09T12:08:50.417Z,11.23
2024-01-09T12:11:18.050Z,10.82
2024-01-09T12:13:45.939Z,10.95
2024-01-09T12:16:17.554Z,11.65
2024-01-09T12:18:49.723Z,12.05
2024-01-09T12:21:17.250Z,11.07
2024-01-09T12:24:02.930Z,12.38
2024-01-09T12:26:34.606Z,35.15
2024-01-09T12:29:03.521Z,25.75
2024-01-09T12:31:30.717Z,35.13
2024-01-09T12:33:58.551Z,41.17
2024-01-09T12:36:28.011Z,15.32
2024-01-09T12:38:58.087Z,13.63
2024-01-09T12:41:27.910Z,12.82
2024-01-09T12:43:55.290Z,13.65
2024-01-09T12:46:22.930Z,13.80
2024-01-09T12:48:51.736Z,12.35
2024-01-09T12:51:20.127Z,13.10
2024-01-09T12:53:48.152Z,12.15
2024-01-09T12:56:17.220Z,12.02
2024-01-09T12:58:46.076Z,14.20
2024-01-09T13:01:13.445Z,13.13
2024-01-09T13:03:41.169Z,15.68
2024-01-09T13:06:11.367Z,12.30
2024-01-09T13:08:42.352Z,13.32
2024-01-09T13:11:10.939Z,14.00
2024-01-09T13:16:08.746Z,11.75
2024-01-09T13:18:36.808Z,11.80
2024-01-09T13:21:04.591Z,10.63
2024-01-09T13:26:03.817Z,11.32
2024-01-09T13:28:31.608Z,11.75
2024-01-09T13:31:00.551Z,11.63
2024-01-09T13:33:28.769Z,11.13
2024-01-09T13:35:59.098Z,12.25
2024-01-09T13:38:26.376Z,12.35
2024-01-09T13:40:53.513Z,12.30
2024-01-09T13:43:26.266Z,11.93
2024-01-09T13:45:55.352Z,13.55
2024-01-09T13:48:24.145Z,12.45
2024-01-09T13:53:23.476Z,12.18
2024-01-09T13:55:52.161Z,13.52
2024-01-09T13:58:19.765Z,12.82
2024-01-09T14:00:46.984Z,16.42
2024-01-09T14:03:15.227Z,14.25
2024-01-09T14:05:44.170Z,14.80
2024-01-09T14:08:11.914Z,12.85
2024-01-09T14:10:39.247Z,14.90
2024-01-09T14:13:08.631Z,15.45
2024-01-09T14:15:36.621Z,16.00
2024-01-09T14:18:06.253Z,16.73
2024-01-09T14:20:33.507Z,19.02
2024-01-09T14:23:02.395Z,17.20
2024-01-09T14:25:29.970Z,18.85
2024-01-09T14:27:57.451Z,19.33
2024-01-09T14:30:24.911Z,21.08
2024-01-09T14:32:52.458Z,18.98
2024-01-09T14:35:20.620Z,16.60
2024-01-09T14:37:48.101Z,15.57
2024-01-09T14:40:16.808Z,14.27
2024-01-09T14:42:44.163Z,14.35
2024-01-09T14:45:13.657Z,13.77
2024-01-09T14:47:44.523Z,15.25
2024-01-09T14:50:11.796Z,15.15
2024-01-09T14:52:39.354Z,15.70
2024-01-09T14:55:07.591Z,14.35
2024-01-09T14:57:36.307Z,14.15
2024-01-09T15:00:06.046Z,14.05
2024-01-09T15:02:33.701Z,13.75
2024-01-09T15:05:02.229Z,12.80
2024-01-09T15:07:29.908Z,12.57
2024-01-09T15:09:57.010Z,12.13
2024-01-09T15:12:28.986Z,13.27
2024-01-09T15:14:58.940Z,13.27
2024-01-09T15:17:26.433Z,13.85
2024-01-09T15:19:53.652Z,13.88
2024-01-09T15:22:20.891Z,14.52
2024-01-09T15:24:48.531Z,14.23
2024-01-09T15:27:15.908Z,14.15
2024-01-09T15:29:43.120Z,14.20
2024-01-09T15:32:11.961Z,14.68
2024-01-09T15:34:39.169Z,13.93
2024-01-09T15:37:06.499Z,15.02
2024-01-09T15:39:33.599Z,15.23
2024-01-09T15:42:01.122Z,13.98
2024-01-09T15:44:29.984Z,15.05
2024-01-09T15:46:57.341Z,15.20
2024-01-09T15:49:26.044Z,18.85
2024-01-09T15:51:54.301Z,14.35
2024-01-09T15:54:21.521Z,13.48
2024-01-09T15:56:49.446Z,14.23
2024-01-09T15:59:16.836Z,14.27
2024-01-09T16:01:45.701Z,13.27
2024-01-09T16:04:12.901Z,13.18
2024-01-09T16:06:43.129Z,12.50
2024-01-09T16:09:13.376Z,12.90
2024-01-09T16:11:48.142Z,12.63
2024-01-09T16:14:16.884Z,12.00
2024-01-09T16:19:11.155Z,11.25
2024-01-09T16:21:39.140Z,10.88
2024-01-09T16:24:10.462Z,12.00
2024-01-09T16:26:38.046Z,11.90
2024-01-09T16:29:05.379Z,12.60
2024-01-09T16:34:26.295Z,12.43
2024-01-09T16:36:53.778Z,12.60
2024-01-09T16:39:25.216Z,12.27
2024-01-09T16:41:55.097Z,10.60
2024-01-09T16:44:23.420Z,14.75
2024-01-09T16:46:50.787Z,12.52
2024-01-09T16:49:19.220Z,12.10
2024-01-09T16:51:47.402Z,13.90
2024-01-09T16:54:14.514Z,14.77
2024-01-09T16:56:43.249Z,15.23
2024-01-09T16:59:10.387Z,14.35
2024-01-09T17:01:37.854Z,14.60
2024-01-09T17:04:05.208Z,15.93
2024-01-09T17:06:32.608Z,14.15
2024-01-09T17:09:01.435Z,14.55
2024-01-09T17:11:31.534Z,13.38
2024-01-09T17:14:01.410Z,13.65
2024-01-09T17:16:53.411Z,12.73
2024-01-09T17:19:31.941Z,14.67
2024-01-09T17:21:59.672Z,13.93
2024-01-09T17:24:30.906Z,13.73
2024-01-09T17:27:03.551Z,15.57
2024-01-09T17:29:36.842Z,15.40
2024-01-09T17:32:27.658Z,14.25
2024-01-09T17:35:32.818Z,13.05
2024-01-09T17:38:17.965Z,14.40
2024-01-09T17:40:49.669Z,13.38
2024-01-09T17:43:21.883Z,12.68
2024-01-09T17:46:41.736Z,13.30
2024-01-09T17:49:10.511Z,13.27
2024-01-09T17:51:40.036Z,12.63
2024-01-09T17:56:50.640Z,11.77
2024-01-09T18:05:18.830Z,15.90
2024-01-09T18:07:46.345Z,21.20
2024-01-09T18:10:14.213Z,17.50
2024-01-09T18:12:53.205Z,13.68
2024-01-09T18:15:23.110Z,12.95
2024-01-09T18:17:52.093Z,14.25
2024-01-09T18:20:20.728Z,18.02
2024-01-09T18:22:48.203Z,17.65
2024-01-09T18:25:15.669Z,19.10
2024-01-09T18:27:44.159Z,19.27
2024-01-09T18:30:12.834Z,19.27
2024-01-09T18:35:09.970Z,18.05
2024-01-09T18:37:38.910Z,18.95
2024-01-09T18:40:10.075Z,21.33
2024-01-09T18:42:37.480Z,20.98
2024-01-09T18:45:05.661Z,22.63
2024-01-09T18:47:39.362Z,25.63
2024-01-09T18:50:08.245Z,22.70
2024-01-09T18:52:36.051Z,21.52
2024-01-09T18:55:07.928Z,20.08
2024-01-09T18:57:35.890Z,20.00
2024-01-09T19:00:06.579Z,19.65
2024-01-09T19:02:35.168Z,19.92
2024-01-09T19:05:08.314Z,20.63
2024-01-09T19:07:36.063Z,21.45
2024-01-09T19:10:05.284Z,21.45
2024-01-09T19:12:32.744Z,25.23
2024-01-09T19:14:59.873Z,21.95
2024-01-09T19:17:27.337Z,20.05
2024-01-09T19:19:55.709Z,20.50
2024-01-09T19:22:23.309Z,19.35
2024-01-09T19:24:51.593Z,16.17
2024-01-09T19:27:20.696Z,18.95
2024-01-09T19:29:49.674Z,16.65
2024-01-09T19:32:18.349Z,16.80
2024-01-09T19:34:45.632Z,17.88
2024-01-09T19:37:15.980Z,17.10
2024-01-09T19:39:44.232Z,18.02
2024-01-09T19:42:12.024Z,19.67
2024-01-09T19:44:40.593Z,17.40
2024-01-09T19:47:08.133Z,19.70
2024-01-09T19:49:35.553Z,18.77
2024-01-09T19:52:06.030Z,16.88
2024-01-09T19:54:33.337Z,16.00
2024-01-09T19:57:00.760Z,15.73
2024-01-09T19:59:27.859Z,15.10
2024-01-09T20:01:56.735Z,17.65
2024-01-09T20:04:24.211Z,16.15
2024-01-09T20:06:52.374Z,17.33
2024-01-09T20:09:19.872Z,19.55
2024-01-09T20:11:47.335Z,31.75
2024-01-09T20:14:14.448Z,29.55
2024-01-09T20:16:42.021Z,25.65
2024-01-09T20:19:10.877Z,22.35
2024-01-09T20:24:08.504Z,16.50
2024-01-09T20:26:36.348Z,16.20
2024-01-09T20:29:03.562Z,72.45
2024-01-09T20:31:33.795Z,113.93
2024-01-09T20:34:00.986Z,46.60
2024-01-09T20:36:29.693Z,25.40
2024-01-09T20:38:57.862Z,21.17
2024-01-09T20:41:25.339Z,21.17
2024-01-09T20:43:53.814Z,21.80
2024-01-09T20:46:21.311Z,20.90
2024-01-09T20:48:48.366Z,23.38
2024-01-09T20:51:21.563Z,23.83
2024-01-09T20:53:50.337Z,22.17
2024-01-09T20:58:45.320Z,20.80
2024-01-09T21:01:12.917Z,22.65
2024-01-09T21:03:40.246Z,23.15
2024-01-09T21:06:08.546Z,23.52
2024-01-09T21:08:35.952Z,24.05
2024-01-09T21:11:06.208Z,24.20
2024-01-09T21:13:36.156Z,25.90
2024-01-09T21:16:03.936Z,25.13
2024-01-09T21:18:31.152Z,26.10
2024-01-09T21:21:03.441Z,26.17
2024-01-09T21:23:35.613Z,26.30
2024-01-09T21:26:12.035Z,25.65
2024-01-09T21:28:39.220Z,24.63
2024-01-09T21:31:06.792Z,24.23
2024-01-09T21:33:34.909Z,25.00
2024-01-09T21:36:04.691Z,23.23
2024-01-09T21:38:32.415Z,23.45
2024-01-09T21:41:00.390Z,22.50
2024-01-09T21:43:29.622Z,22.42
2024-01-09T21:48:24.244Z,21.90
2024-01-09T21:50:51.805Z,22.83
2024-01-09T21:53:19.063Z,22.42
2024-01-09T21:55:46.663Z,22.33
2024-01-09T21:58:14.533Z,22.88
2024-01-09T22:00:43.493Z,21.48
2024-01-09T22:03:32.738Z,22.10
2024-01-09T22:06:00.307Z,21.52
2024-01-09T22:08:27.364Z,22.33
2024-01-09T22:10:55.095Z,23.33
2024-01-09T22:13:22.090Z,21.67
2024-01-09T22:15:52.501Z,22.50
2024-01-09T22:18:20.650Z,24.60
2024-01-09T22:20:48.175Z,26.38
2024-01-09T22:23:15.492Z,27.77
2024-01-09T22:25:43.180Z,27.70
2024-01-09T22:28:12.385Z,27.58
2024-01-09T22:30:42.941Z,25.73
2024-01-09T22:33:12.054Z,27.40
2024-01-09T22:35:41.471Z,24.67
2024-01-09T22:40:36.069Z,23.98
2024-01-09T22:43:03.346Z,27.52
2024-01-09T22:45:30.789Z,26.75
2024-01-09T22:47:57.793Z,28.20
2024-01-09T22:51:22.042Z,29.85
2024-01-09T22:53:49.412Z,28.10
2024-01-09T22:56:17.736Z,28.70
2024-01-09T22:58:45.638Z,29.00
2024-01-09T23:01:12.975Z,28.50
2024-01-09T23:03:40.739Z,28.88
2024-01-09T23:06:09.530Z,27.65
2024-01-09T23:08:36.900Z,23.63
2024-01-09T23:11:04.203Z,24.60
2024-01-09T23:13:31.501Z,22.80
2024-01-09T23:15:58.708Z,23.20
2024-01-09T23:18:26.081Z,22.48
2024-01-09T23:21:25.431Z,22.25
2024-01-09T23:23:54.725Z,22.40
2024-01-09T23:26:21.872Z,20.27
2024-01-09T23:28:49.546Z,20.58
2024-01-09T23:31:21.044Z,20.23
2024-01-09T23:33:48.510Z,20.27
2024-01-09T23:36:15.583Z,20.30
2024-01-09T23:38:43.129Z,22.50
2024-01-09T23:41:22.773Z,23.33
2024-01-09T23:43:50.383Z,24.70
2024-01-09T23:46:17.484Z,22.33
2024-01-09T23:48:44.986Z,23.15
2024-01-09T23:51:34.038Z,22.38
2024-01-09T23:54:01.499Z,18.92
2024-01-09T23:56:29.975Z,18.50
2024-01-09T23:58:57.363Z,19.70
